createdAt,value
2024-01-16T00:03:35.765Z,10.64
2024-01-16T00:08:33.747Z,10.62
2024-01-16T00:13:33.546Z,10.48
2024-01-16T00:18:31.555Z,10.44
2024-01-16T00:23:28.748Z,10.31
2024-01-16T00:28:28.642Z,10.04
2024-01-16T00:33:27.839Z,9.98
2024-01-16T00:38:26.481Z,9.56
2024-01-16T00:43:23.796Z,9.71
2024-01-16T00:48:21.769Z,9.58
2024-01-16T00:53:19.749Z,9.49
2024-01-16T00:58:18.627Z,8.94
2024-01-16T01:03:15.732Z,9.32
2024-01-16T01:08:13.845Z,9.47
2024-01-16T01:13:11.745Z,9.38
2024-01-16T01:18:09.922Z,9.02
2024-01-16T01:23:08.623Z,9.29
2024-01-16T01:28:06.296Z,9.31
2024-01-16T01:33:04.332Z,9.05
2024-01-16T01:38:02.768Z,8.56
2024-01-16T01:43:18.728Z,8.91
2024-01-16T01:48:16.403Z,9.33
2024-01-16T01:53:14.806Z,9.31
2024-01-16T01:58:13.192Z,9.22
2024-01-16T02:03:10.641Z,9.20
2024-01-16T02:08:07.784Z,9.17
2024-01-16T02:13:06.440Z,9.13
2024-01-16T02:18:04.106Z,9.03
2024-01-16T02:23:04.767Z,8.76
2024-01-16T02:28:03.601Z,9.00
2024-01-16T02:33:00.905Z,9.12
2024-01-16T02:37:58.610Z,8.77
2024-01-16T02:42:57.830Z,9.09
2024-01-16T02:47:57.453Z,9.09
2024-01-16T02:52:54.497Z,8.97
2024-01-16T02:57:51.529Z,8.97
2024-01-16T03:02:48.689Z,9.01
2024-01-16T03:07:46.606Z,8.85
2024-01-16T03:12:43.568Z,8.58
2024-01-16T03:17:41.083Z,7.99
2024-01-16T03:22:38.604Z,8.33
2024-01-16T03:27:36.369Z,8.52
2024-01-16T03:32:33.587Z,8.71
2024-01-16T03:37:30.923Z,8.66
2024-01-16T03:42:27.949Z,8.08
2024-01-16T03:47:25.712Z,8.67
2024-01-16T03:52:23.438Z,8.56
2024-01-16T03:57:20.438Z,8.50
2024-01-16T04:02:17.408Z,8.43
2024-01-16T04:07:15.136Z,8.12
2024-01-16T04:12:12.220Z,8.05
2024-01-16T04:17:09.211Z,7.68
2024-01-16T04:22:06.485Z,7.72
2024-01-16T04:27:04.874Z,7.56
2024-01-16T04:32:01.857Z,7.49
2024-01-16T04:36:58.860Z,7.64
2024-01-16T04:41:56.682Z,7.06
2024-01-16T04:46:55.366Z,7.54
2024-01-16T04:51:52.354Z,7.35
2024-01-16T04:56:49.390Z,7.42
2024-01-16T05:01:47.137Z,7.30
2024-01-16T05:06:45.068Z,7.16
2024-01-16T05:11:42.125Z,7.21
2024-01-16T05:16:39.200Z,6.89
2024-01-16T05:21:36.239Z,6.88
2024-01-16T05:26:34.260Z,6.97
2024-01-16T05:31:32.484Z,6.67
2024-01-16T05:36:29.503Z,6.87
2024-01-16T05:41:26.552Z,6.65
2024-01-16T05:46:26.006Z,6.64
2024-01-16T05:51:23.146Z,6.68
2024-01-16T05:56:20.434Z,6.45
2024-01-16T06:01:17.447Z,6.77
2024-01-16T06:06:15.319Z,6.15
2024-01-16T06:11:33.006Z,6.30
2024-01-16T06:16:30.379Z,6.31
2024-01-16T06:21:31.095Z,5.98
2024-01-16T06:26:28.173Z,6.03
2024-01-16T06:31:29.228Z,6.13
2024-01-16T06:36:30.040Z,5.49
2024-01-16T06:41:27.277Z,6.09
2024-01-16T06:46:27.649Z,6.01
2024-01-16T06:51:27.428Z,5.99
2024-01-16T06:56:25.901Z,6.16
2024-01-16T07:01:23.111Z,5.49
2024-01-16T07:06:20.744Z,6.29
2024-01-16T07:11:17.977Z,5.96
2024-01-16T07:16:15.779Z,6.52
2024-01-16T07:21:19.145Z,6.53
2024-01-16T07:26:17.211Z,6.25
2024-01-16T07:31:14.158Z,6.51
2024-01-16T07:36:13.020Z,6.48
2024-01-16T07:41:10.016Z,6.92
2024-01-16T07:46:06.890Z,6.74
2024-01-16T07:51:04.046Z,7.52
2024-01-16T07:56:17.734Z,7.88
2024-01-16T08:01:23.094Z,7.93
2024-01-16T08:06:23.113Z,8.47
2024-01-16T08:11:20.939Z,8.75
2024-01-16T08:16:17.899Z,8.92
2024-01-16T08:21:15.064Z,8.93
2024-01-16T08:26:14.543Z,9.02
2024-01-16T08:31:12.321Z,9.07
2024-01-16T08:36:09.728Z,9.01
2024-01-16T08:41:07.159Z,8.50
2024-01-16T08:46:04.631Z,8.72
2024-01-16T08:51:02.306Z,8.43
2024-01-16T08:55:59.215Z,8.78
2024-01-16T09:00:56.137Z,8.82
2024-01-16T09:05:53.176Z,8.69
2024-01-16T09:10:51.153Z,8.69
2024-01-16T09:15:49.842Z,9.06
2024-01-16T09:20:47.240Z,9.13
2024-01-16T09:25:46.727Z,8.87
2024-01-16T09:30:46.423Z,8.89
2024-01-16T09:35:43.565Z,8.70
2024-01-16T09:40:40.944Z,8.64
2024-01-16T09:45:41.841Z,8.83
2024-01-16T09:50:39.806Z,9.27
2024-01-16T09:55:36.762Z,9.71
2024-01-16T10:00:34.336Z,9.92
2024-01-16T10:05:31.961Z,10.46
2024-01-16T10:10:38.660Z,10.37
2024-01-16T10:15:43.905Z,10.36
2024-01-16T10:20:43.981Z,9.95
2024-01-16T10:25:42.367Z,9.46
2024-01-16T10:30:41.712Z,9.41
2024-01-16T10:35:38.689Z,8.93
2024-01-16T10:40:35.652Z,9.35
2024-01-16T10:45:34.347Z,9.31
2024-01-16T10:50:31.523Z,9.25
2024-01-16T10:55:30.480Z,8.89
2024-01-16T11:00:30.086Z,9.09
2024-01-16T11:05:30.706Z,8.91
2024-01-16T11:10:28.633Z,8.92
2024-01-16T11:15:26.359Z,8.89
2024-01-16T11:20:47.401Z,9.53
2024-01-16T11:25:45.227Z,9.68
2024-01-16T11:30:47.765Z,9.89
2024-01-16T11:35:52.541Z,9.77
2024-01-16T11:40:50.375Z,10.65
2024-01-16T11:45:54.105Z,10.38
2024-01-16T11:50:52.067Z,10.61
2024-01-16T11:56:17.289Z,10.71
2024-01-16T12:01:16.686Z,10.79
2024-01-16T12:06:17.668Z,10.79
2024-01-16T12:11:22.754Z,10.57
2024-01-16T12:16:22.146Z,10.22
2024-01-16T12:21:19.285Z,10.44
2024-01-16T12:26:22.167Z,10.18
2024-01-16T12:31:19.538Z,10.26
2024-01-16T12:36:16.933Z,9.96
2024-01-16T12:41:14.179Z,10.08
2024-01-16T12:46:13.639Z,10.10
2024-01-16T12:51:12.872Z,10.09
2024-01-16T12:56:11.253Z,9.88
2024-01-16T13:01:35.100Z,10.22
2024-01-16T13:06:37.420Z,10.25
2024-01-16T13:11:46.453Z,10.16
2024-01-16T13:16:44.228Z,9.96
2024-01-16T13:21:41.274Z,9.72
2024-01-16T13:26:38.327Z,9.13
2024-01-16T13:31:35.294Z,9.34
2024-01-16T13:36:47.221Z,9.46
2024-01-16T13:41:50.190Z,9.42
2024-01-16T13:46:58.017Z,9.44
2024-01-16T13:52:03.931Z,9.30
2024-01-16T13:57:06.808Z,9.28
2024-01-16T14:02:05.623Z,9.14
2024-01-16T14:07:12.148Z,9.00
2024-01-16T14:12:11.683Z,8.85
2024-01-16T14:17:09.181Z,8.56
2024-01-16T14:22:06.802Z,8.56
2024-01-16T14:27:07.471Z,8.51
2024-01-16T14:32:04.877Z,7.82
2024-01-16T14:37:04.197Z,8.25
2024-01-16T14:42:06.863Z,8.05
2024-01-16T14:47:04.655Z,8.03
2024-01-16T14:52:02.606Z,7.91
2024-01-16T14:57:01.197Z,7.74
2024-01-16T15:01:58.267Z,7.67
2024-01-16T15:06:56.280Z,7.50
2024-01-16T15:11:53.515Z,7.37
2024-01-16T15:16:51.807Z,7.01
2024-01-16T15:21:48.962Z,7.20
2024-01-16T15:26:46.161Z,6.79
2024-01-16T15:31:43.139Z,6.85
2024-01-16T15:36:41.074Z,6.74
2024-01-16T15:41:38.033Z,6.82
2024-01-16T15:46:37.808Z,6.68
2024-01-16T15:51:34.767Z,6.60
2024-01-16T15:56:33.604Z,6.54
2024-01-16T16:01:32.398Z,6.04
2024-01-16T16:06:29.537Z,6.31
2024-01-16T16:11:27.420Z,6.28
2024-01-16T16:16:28.039Z,5.78
2024-01-16T16:21:25.277Z,5.56
2024-01-16T16:26:32.474Z,5.56
2024-01-16T16:31:31.649Z,5.69
2024-01-16T16:36:30.064Z,5.81
2024-01-16T16:41:28.520Z,5.55
2024-01-16T16:46:27.156Z,5.43
2024-01-16T16:51:26.318Z,5.73
2024-01-16T16:56:24.170Z,5.33
2024-01-16T17:01:21.746Z,5.57
2024-01-16T17:06:19.289Z,5.25
2024-01-16T17:11:16.993Z,5.47
2024-01-16T17:16:14.436Z,5.38
2024-01-16T17:21:16.233Z,5.37
2024-01-16T17:26:14.078Z,5.32
2024-01-16T17:31:11.845Z,5.30
2024-01-16T17:36:11.509Z,4.87
2024-01-16T17:41:08.553Z,5.20
2024-01-16T17:46:06.039Z,4.92
2024-01-16T17:51:03.834Z,5.08
2024-01-16T17:56:00.897Z,4.91
2024-01-16T18:00:58.159Z,4.35
2024-01-16T18:06:05.654Z,4.81
2024-01-16T18:11:05.608Z,4.85
2024-01-16T18:16:06.451Z,5.11
2024-01-16T18:21:06.497Z,4.61
2024-01-16T18:26:08.404Z,4.76
2024-01-16T18:31:05.774Z,5.04
2024-01-16T18:36:03.176Z,4.88
2024-01-16T18:41:00.978Z,5.08
2024-01-16T18:45:58.852Z,4.81
2024-01-16T18:50:56.170Z,4.55
2024-01-16T18:55:53.780Z,5.05
2024-01-16T19:00:56.768Z,4.64
2024-01-16T19:05:56.956Z,5.03
2024-01-16T19:10:56.108Z,4.85
2024-01-16T19:15:53.409Z,5.05
2024-01-16T19:20:52.756Z,4.76
2024-01-16T19:25:55.357Z,4.59
2024-01-16T19:30:54.208Z,4.98
2024-01-16T19:35:51.611Z,4.72
2024-01-16T19:40:51.247Z,4.76
2024-01-16T19:45:51.564Z,4.82
2024-01-16T19:50:50.596Z,4.83
2024-01-16T19:55:48.170Z,4.67
2024-01-16T20:00:46.661Z,4.28
2024-01-16T20:05:44.688Z,4.73
2024-01-16T20:10:42.378Z,4.31
2024-01-16T20:15:39.629Z,4.60
2024-01-16T20:20:45.718Z,3.74
2024-01-16T20:25:50.606Z,4.54
2024-01-16T20:30:51.419Z,4.28
2024-01-16T20:35:48.698Z,4.18
2024-01-16T20:40:47.495Z,4.38
2024-01-16T20:45:44.659Z,4.36
2024-01-16T20:50:41.880Z,4.36
2024-01-16T20:55:39.932Z,4.33
2024-01-16T21:00:39.895Z,3.47
2024-01-16T21:05:37.225Z,4.24
2024-01-16T21:10:34.751Z,3.75
2024-01-16T21:15:32.469Z,3.98
2024-01-16T21:20:32.366Z,3.94
2024-01-16T21:25:31.113Z,3.86
2024-01-16T21:30:28.385Z,3.35
2024-01-16T21:35:27.535Z,3.92
2024-01-16T21:40:25.221Z,3.87
2024-01-16T21:45:22.507Z,3.80
2024-01-16T21:50:26.250Z,3.24
2024-01-16T21:55:31.292Z,3.34
2024-01-16T22:00:28.562Z,3.40
2024-01-16T22:05:27.742Z,3.57
2024-01-16T22:10:25.187Z,3.03
2024-01-16T22:15:22.856Z,3.53
2024-01-16T22:20:20.730Z,3.54
2024-01-16T22:25:17.748Z,3.28
2024-01-16T22:30:15.682Z,3.58
2024-01-16T22:35:14.416Z,3.57
2024-01-16T22:40:13.433Z,3.55
2024-01-16T22:45:12.965Z,3.32
2024-01-16T22:50:11.768Z,3.49
2024-01-16T22:55:10.276Z,3.15
2024-01-16T23:00:18.783Z,3.41
2024-01-16T23:05:17.037Z,2.98
2024-01-16T23:10:15.599Z,3.30
2024-01-16T23:15:13.393Z,3.09
2024-01-16T23:20:13.840Z,3.18
2024-01-16T23:25:11.409Z,2.99
2024-01-16T23:30:10.961Z,3.08
2024-01-16T23:35:09.875Z,2.82
2024-01-16T23:40:09.599Z,2.60
2024-01-16T23:45:11.610Z,2.77
2024-01-16T23:50:17.405Z,2.73
2024-01-16T23:55:15.195Z,2.67
